Terminal Aerodrome Forecast
Issued by NWS Norman, OK

Home | Current Version | Previous Version | Text Only | Print | Product List | Glossary On
Versions: 1 2 3 4 5 6 7 8 9 10 11 12 13 14
000
FTUS44 KOUN 201720
TAFSPS
TAF
KSPS 201720Z 2018/2118 13018G28KT P6SM SCT150 BKN250
      TEMPO 2108/2112 6SM -SHRA SCT015 OVC035
     FM211200 13013KT P6SM OVC050 PROB30 2112/2118 5SM -TSRA
      BKN030CB=

USA.gov is the U.S. government's official web portal to all federal, state and local government web resources and services.